createdAt,value
2017-10-23T00:00:21.803Z,1007.62
2017-10-23T00:00:47.955Z,1007.65
2017-10-23T00:01:14.098Z,1007.59
2017-10-23T00:01:40.248Z,1007.63
2017-10-23T00:02:06.401Z,1007.63
2017-10-23T00:02:32.551Z,1007.66
2017-10-23T00:02:58.688Z,1007.62
2017-10-23T00:03:24.829Z,1007.64
2017-10-23T00:03:50.970Z,1007.66
2017-10-23T00:04:17.112Z,1007.66
2017-10-23T00:04:43.260Z,1007.66
2017-10-23T00:05:09.409Z,1007.64
2017-10-23T00:05:35.554Z,1007.69
2017-10-23T00:06:01.706Z,1007.65
2017-10-23T00:06:27.857Z,1007.65
2017-10-23T00:06:54.001Z,1007.67
2017-10-23T00:07:20.148Z,1007.66
2017-10-23T00:07:46.299Z,1007.67
2017-10-23T00:08:12.444Z,1007.69
2017-10-23T00:08:38.607Z,1007.69
2017-10-23T00:09:04.756Z,1007.61
2017-10-23T00:09:30.898Z,1007.65
2017-10-23T00:09:57.041Z,1007.65
2017-10-23T00:10:23.193Z,1007.62
2017-10-23T00:10:49.328Z,1007.76
2017-10-23T00:11:15.478Z,1007.64
2017-10-23T00:11:41.630Z,1007.69
2017-10-23T00:12:07.770Z,1007.7
2017-10-23T00:12:33.921Z,1007.66
2017-10-23T00:13:00.061Z,1007.65
2017-10-23T00:13:26.205Z,1007.67
2017-10-23T00:13:52.354Z,1007.66
2017-10-23T00:14:18.521Z,1007.62
2017-10-23T00:14:44.670Z,1007.66
2017-10-23T00:15:10.811Z,1007.64
2017-10-23T00:15:36.963Z,1007.67
2017-10-23T00:16:03.119Z,1007.68
2017-10-23T00:16:29.249Z,1007.7
2017-10-23T00:16:55.399Z,1007.64
2017-10-23T00:17:21.544Z,1007.69
2017-10-23T00:17:47.693Z,1007.69
2017-10-23T00:18:13.833Z,1007.68
2017-10-23T00:18:39.974Z,1007.67
2017-10-23T00:19:06.126Z,1007.64
2017-10-23T00:19:32.267Z,1007.67
2017-10-23T00:19:58.418Z,1007.7
2017-10-23T00:20:24.590Z,1007.65
2017-10-23T00:20:50.761Z,1007.71
2017-10-23T00:21:16.913Z,1007.73
2017-10-23T00:21:43.057Z,1007.69
2017-10-23T00:22:09.201Z,1007.68
2017-10-23T00:22:35.342Z,1007.72
2017-10-23T00:23:01.489Z,1007.64
2017-10-23T00:23:27.634Z,1007.7
2017-10-23T00:23:53.782Z,1007.7
2017-10-23T00:24:19.924Z,1007.69
2017-10-23T00:24:46.086Z,1007.68
2017-10-23T00:25:12.223Z,1007.72
2017-10-23T00:25:38.386Z,1007.7
2017-10-23T00:26:04.568Z,1007.76
2017-10-23T00:26:30.718Z,1007.76
2017-10-23T00:26:56.859Z,1007.73
2017-10-23T00:27:23.007Z,1007.79
2017-10-23T00:27:49.156Z,1007.77
2017-10-23T00:28:15.292Z,1007.74
2017-10-23T00:28:41.434Z,1007.8
2017-10-23T00:29:07.580Z,1007.8
2017-10-23T00:29:33.729Z,1007.79
2017-10-23T00:29:59.877Z,1007.79
2017-10-23T00:30:26.014Z,1007.78
2017-10-23T00:30:52.158Z,1007.76
2017-10-23T00:31:18.304Z,1007.84
2017-10-23T00:31:44.451Z,1007.76
2017-10-23T00:32:10.595Z,1007.8
2017-10-23T00:32:36.743Z,1007.8
2017-10-23T00:33:02.912Z,1007.78
2017-10-23T00:33:29.058Z,1007.79
2017-10-23T00:33:55.205Z,1007.84
2017-10-23T00:34:21.348Z,1007.83
2017-10-23T00:34:47.496Z,1007.8
2017-10-23T00:35:13.640Z,1007.85
2017-10-23T00:35:39.786Z,1007.84
2017-10-23T00:36:05.937Z,1007.84
2017-10-23T00:36:32.079Z,1007.79
2017-10-23T00:36:58.230Z,1007.82
2017-10-23T00:37:24.369Z,1007.81
2017-10-23T00:37:50.512Z,1007.85
2017-10-23T00:38:16.663Z,1007.83
2017-10-23T00:38:42.843Z,1007.88
2017-10-23T00:39:08.977Z,1007.84
2017-10-23T00:39:35.129Z,1007.87
2017-10-23T00:40:01.267Z,1007.89
2017-10-23T00:40:27.407Z,1007.89
2017-10-23T00:40:53.560Z,1007.91
2017-10-23T00:41:19.698Z,1007.9
2017-10-23T00:41:45.850Z,1007.9
2017-10-23T00:42:11.997Z,1007.89
2017-10-23T00:42:38.139Z,1007.91
2017-10-23T00:43:04.292Z,1007.97
2017-10-23T00:43:30.438Z,1007.99
2017-10-23T00:43:56.576Z,1007.93
2017-10-23T00:44:22.726Z,1007.94
2017-10-23T00:44:48.865Z,1007.95
2017-10-23T00:45:15.007Z,1007.94
2017-10-23T00:45:41.184Z,1007.97
2017-10-23T00:46:07.326Z,1008.01
2017-10-23T00:46:33.473Z,1007.97
2017-10-23T00:46:59.623Z,1007.96
2017-10-23T00:47:25.769Z,1007.94
2017-10-23T00:47:51.911Z,1007.98
2017-10-23T00:48:18.060Z,1007.87
2017-10-23T00:48:44.202Z,1008
2017-10-23T00:49:10.344Z,1007.95
2017-10-23T00:49:36.489Z,1007.96
2017-10-23T00:50:02.629Z,1007.96
2017-10-23T00:50:28.779Z,1007.96
2017-10-23T00:50:54.935Z,1007.99
2017-10-23T00:51:21.077Z,1007.95
2017-10-23T00:51:47.233Z,1008
2017-10-23T00:52:13.359Z,1007.96
2017-10-23T00:52:39.488Z,1008
2017-10-23T00:53:05.597Z,1007.98
2017-10-23T00:53:31.724Z,1008.01
2017-10-23T00:53:57.844Z,1007.99
2017-10-23T00:54:23.967Z,1007.92
2017-10-23T00:54:50.090Z,1008.01
2017-10-23T00:55:16.208Z,1007.93
2017-10-23T00:55:42.333Z,1008
2017-10-23T00:56:08.454Z,1007.94
2017-10-23T00:56:34.575Z,1008.01
2017-10-23T00:57:00.696Z,1007.99
2017-10-23T00:57:26.820Z,1007.95
2017-10-23T00:57:52.943Z,1007.97
2017-10-23T00:58:19.082Z,1008
2017-10-23T00:58:45.241Z,1007.99
2017-10-23T00:59:11.367Z,1007.96
2017-10-23T00:59:37.493Z,1008.03
2017-10-23T01:00:03.611Z,1007.95
2017-10-23T01:00:29.737Z,1007.97
2017-10-23T01:00:55.862Z,1008.05
2017-10-23T01:01:22.005Z,1008.01
2017-10-23T01:01:48.125Z,1008.01
2017-10-23T01:02:14.249Z,1008.03
2017-10-23T01:02:40.366Z,1008.04
2017-10-23T01:03:06.485Z,1008.03
2017-10-23T01:03:32.607Z,1008.03
2017-10-23T01:03:58.728Z,1008.01
2017-10-23T01:04:24.854Z,1008.06
2017-10-23T01:04:50.971Z,1008
2017-10-23T01:05:17.099Z,1008.05
2017-10-23T01:05:43.226Z,1008.03
2017-10-23T01:06:09.337Z,1008.02
2017-10-23T01:06:35.478Z,1008.03
2017-10-23T01:07:01.582Z,1008.09
2017-10-23T01:07:27.701Z,1008.08
2017-10-23T01:07:53.844Z,1008.03
2017-10-23T01:08:19.967Z,1008.08
2017-10-23T01:08:46.092Z,1008
2017-10-23T01:09:12.221Z,1008.03
2017-10-23T01:09:38.338Z,1008.06
2017-10-23T01:10:04.459Z,1008.06
2017-10-23T01:10:30.575Z,1008.07
2017-10-23T01:10:56.698Z,1008.05
2017-10-23T01:11:22.821Z,1008.13
2017-10-23T01:11:48.943Z,1008.14
2017-10-23T01:12:15.059Z,1008.05
2017-10-23T01:12:41.183Z,1008.07
2017-10-23T01:13:07.306Z,1008.05
2017-10-23T01:13:33.426Z,1008.07
2017-10-23T01:13:59.549Z,1008.05
2017-10-23T01:14:25.668Z,1008.02
2017-10-23T01:14:51.787Z,1008.04
2017-10-23T01:15:17.906Z,1008.06
2017-10-23T01:15:44.027Z,1008.04
2017-10-23T01:16:10.160Z,1008.05
2017-10-23T01:16:36.278Z,1007.98
2017-10-23T01:17:02.396Z,1008.04
2017-10-23T01:17:28.521Z,1008.05
2017-10-23T01:17:54.652Z,1008
2017-10-23T01:18:20.768Z,1008.04
2017-10-23T01:18:46.893Z,1008.06
2017-10-23T01:19:13.012Z,1008.06
2017-10-23T01:19:39.139Z,1008.09
2017-10-23T01:20:05.254Z,1008.08
2017-10-23T01:20:31.374Z,1008.1
2017-10-23T01:20:57.501Z,1008.09
2017-10-23T01:21:23.618Z,1008.11
2017-10-23T01:21:49.766Z,1008.08
2017-10-23T01:22:15.892Z,1008.09
2017-10-23T01:22:42.009Z,1008.07
2017-10-23T01:23:08.130Z,1008.12
2017-10-23T01:23:34.257Z,1008.12
2017-10-23T01:24:00.381Z,1008.07
2017-10-23T01:24:26.494Z,1008.07
2017-10-23T01:24:52.645Z,1008.04
2017-10-23T01:25:18.768Z,1008.11
2017-10-23T01:25:44.884Z,1008.08
2017-10-23T01:26:11.010Z,1008.06
2017-10-23T01:26:37.128Z,1008.06
2017-10-23T01:27:03.256Z,1008.13
2017-10-23T01:27:29.376Z,1008.04
2017-10-23T01:27:55.501Z,1008.07
2017-10-23T01:28:21.623Z,1008.09
2017-10-23T01:28:47.743Z,1008.02
2017-10-23T01:29:13.859Z,1008.03
2017-10-23T01:29:40.005Z,1008.07
2017-10-23T01:30:06.129Z,1008.03
2017-10-23T01:30:32.246Z,1008.09
2017-10-23T01:30:58.374Z,1008.04
2017-10-23T01:31:24.495Z,1008.02
2017-10-23T01:31:50.618Z,1008.09
2017-10-23T01:32:16.735Z,1008.05
2017-10-23T01:32:42.862Z,1008.08
2017-10-23T01:33:08.977Z,1008.08
2017-10-23T01:33:35.107Z,1007.97
2017-10-23T01:34:01.222Z,1007.97
2017-10-23T01:34:27.341Z,1008.04
2017-10-23T01:34:53.467Z,1008.06
2017-10-23T01:35:19.585Z,1008.05
2017-10-23T01:35:45.711Z,1007.98
2017-10-23T01:36:11.834Z,1008.06
2017-10-23T01:36:37.959Z,1008.03
2017-10-23T01:37:04.076Z,1008.01
2017-10-23T01:37:30.194Z,1008.06
2017-10-23T01:37:56.315Z,1008.04
2017-10-23T01:38:22.452Z,1008.03
2017-10-23T01:38:48.576Z,1008.05
2017-10-23T01:39:14.715Z,1008.07
2017-10-23T01:39:40.841Z,1008.03
2017-10-23T01:40:06.957Z,1008.02
2017-10-23T01:40:33.089Z,1008.07
2017-10-23T01:40:59.229Z,1008.11
2017-10-23T01:41:25.370Z,1008.11
2017-10-23T01:41:51.497Z,1008.09
2017-10-23T01:42:17.630Z,1008.1
2017-10-23T01:42:43.747Z,1008.08
2017-10-23T01:43:09.872Z,1008.11
2017-10-23T01:43:36.012Z,1008.07
2017-10-23T01:44:02.133Z,1008.07
2017-10-23T01:44:28.259Z,1008.09
2017-10-23T01:44:54.381Z,1008.05
2017-10-23T01:45:20.507Z,1008.07
2017-10-23T01:45:46.632Z,1008.08
2017-10-23T01:46:12.747Z,1008.03
2017-10-23T01:46:38.896Z,1007.97
2017-10-23T01:47:04.997Z,1008.04
2017-10-23T01:47:31.113Z,1008.01
2017-10-23T01:47:57.232Z,1008.05
2017-10-23T01:48:23.359Z,1008.03
2017-10-23T01:48:49.474Z,1008
2017-10-23T01:49:15.593Z,1008.04
2017-10-23T01:49:41.720Z,1008.01
2017-10-23T01:50:07.846Z,1008.03
2017-10-23T01:50:33.963Z,1008.08
2017-10-23T01:51:00.089Z,1008.09
2017-10-23T01:51:26.204Z,1008.03
2017-10-23T01:51:52.324Z,1008
2017-10-23T01:52:18.454Z,1008.03
2017-10-23T01:52:44.609Z,1008
2017-10-23T01:53:10.772Z,1007.98
2017-10-23T01:53:36.850Z,1008.03
2017-10-23T01:54:02.974Z,1007.99
2017-10-23T01:54:29.091Z,1007.96
2017-10-23T01:54:55.219Z,1008.01
2017-10-23T01:55:21.345Z,1008.02
2017-10-23T01:55:47.463Z,1007.98
2017-10-23T01:56:13.588Z,1007.99
2017-10-23T01:56:39.702Z,1007.97
2017-10-23T01:57:05.823Z,1007.97
2017-10-23T01:57:31.948Z,1008
2017-10-23T01:57:58.074Z,1007.98
2017-10-23T01:58:24.187Z,1008.02
2017-10-23T01:58:50.306Z,1008.05
2017-10-23T01:59:16.433Z,1007.96
2017-10-23T01:59:42.550Z,1007.95
2017-10-23T02:00:08.696Z,1007.93
2017-10-23T02:00:34.819Z,1008.01
2017-10-23T02:01:00.956Z,1007.92
2017-10-23T02:01:27.076Z,1007.95
2017-10-23T02:01:53.191Z,1007.94
2017-10-23T02:02:19.310Z,1007.98
2017-10-23T02:02:45.432Z,1007.99
2017-10-23T02:03:11.554Z,1008.01
2017-10-23T02:03:37.678Z,1007.97
2017-10-23T02:04:03.801Z,1007.96
2017-10-23T02:04:29.920Z,1008.09
2017-10-23T02:04:56.047Z,1008.05
2017-10-23T02:05:22.162Z,1007.97
2017-10-23T02:05:48.293Z,1008
2017-10-23T02:06:14.418Z,1007.93
2017-10-23T02:06:40.530Z,1007.97
2017-10-23T02:07:06.656Z,1007.96
2017-10-23T02:07:32.768Z,1007.97
2017-10-23T02:07:58.894Z,1007.96
2017-10-23T02:08:25.014Z,1007.96
2017-10-23T02:08:51.141Z,1008
2017-10-23T02:09:17.261Z,1008.02
2017-10-23T02:09:43.380Z,1008
2017-10-23T02:10:09.500Z,1007.91
2017-10-23T02:10:35.625Z,1007.94
2017-10-23T02:11:01.743Z,1008
2017-10-23T02:11:27.877Z,1008.01
2017-10-23T02:11:54.000Z,1007.98
2017-10-23T02:12:20.118Z,1008.02
2017-10-23T02:12:46.241Z,1008.02
2017-10-23T02:13:12.366Z,1007.99
2017-10-23T02:13:38.483Z,1008.01
2017-10-23T02:14:04.608Z,1007.98
2017-10-23T02:14:30.730Z,1008.06
2017-10-23T02:14:56.851Z,1007.99
2017-10-23T02:15:22.978Z,1008.01
2017-10-23T02:15:49.103Z,1008.06
2017-10-23T02:16:15.214Z,1008.08
2017-10-23T02:16:41.341Z,1008.11
2017-10-23T02:17:07.463Z,1008.11
2017-10-23T02:17:33.583Z,1008.09
2017-10-23T02:17:59.710Z,1008.03
2017-10-23T02:18:25.828Z,1008.07
2017-10-23T02:18:51.951Z,1008.15
2017-10-23T02:19:18.072Z,1008.06
2017-10-23T02:19:44.190Z,1008.02
2017-10-23T02:20:10.314Z,1008.08
2017-10-23T02:20:36.444Z,1008.02
2017-10-23T02:21:02.563Z,1007.99
2017-10-23T02:21:28.679Z,1008.02
2017-10-23T02:21:54.806Z,1008.06
2017-10-23T02:22:20.950Z,1008.04
2017-10-23T02:22:47.067Z,1008.01
2017-10-23T02:23:13.182Z,1008.09
2017-10-23T02:23:39.312Z,1008.07
2017-10-23T02:24:05.434Z,1008.03
2017-10-23T02:24:31.553Z,1008.05
2017-10-23T02:24:57.687Z,1008.01
2017-10-23T02:25:23.799Z,1008.03
2017-10-23T02:25:49.916Z,1008.03
2017-10-23T02:26:16.036Z,1008.01
2017-10-23T02:26:42.157Z,1008
2017-10-23T02:27:08.276Z,1007.99
2017-10-23T02:27:34.426Z,1008
2017-10-23T02:28:00.549Z,1008.02
2017-10-23T02:28:26.668Z,1008.04
2017-10-23T02:28:52.792Z,1008
2017-10-23T02:29:18.908Z,1008.04
2017-10-23T02:29:45.037Z,1007.99
2017-10-23T02:30:11.162Z,1008
2017-10-23T02:30:37.306Z,1008
2017-10-23T02:31:03.447Z,1008.03
2017-10-23T02:31:29.555Z,1007.99
2017-10-23T02:31:55.683Z,1008
2017-10-23T02:32:21.800Z,1008.07
2017-10-23T02:32:47.950Z,1008.02
2017-10-23T02:33:14.070Z,1008.01
2017-10-23T02:33:40.187Z,1008.05
2017-10-23T02:34:06.335Z,1008.02
2017-10-23T02:34:32.460Z,1008.01
2017-10-23T02:34:58.580Z,1008.05
2017-10-23T02:35:24.697Z,1008.03
2017-10-23T02:35:50.823Z,1007.98
2017-10-23T02:36:16.947Z,1008.02
2017-10-23T02:36:43.063Z,1008.06
2017-10-23T02:37:09.184Z,1008.04
2017-10-23T02:37:35.307Z,1008.09
2017-10-23T02:38:01.428Z,1008.07
2017-10-23T02:38:27.553Z,1008.06
2017-10-23T02:38:53.668Z,1008.07
2017-10-23T02:39:19.796Z,1008.11
2017-10-23T02:39:45.919Z,1008.05
2017-10-23T02:40:12.037Z,1008.05
2017-10-23T02:40:38.166Z,1008.04
2017-10-23T02:41:04.281Z,1008.09
2017-10-23T02:41:30.407Z,1008.07
2017-10-23T02:41:56.542Z,1008.12
2017-10-23T02:42:22.662Z,1008.07
2017-10-23T02:42:48.792Z,1008.07
2017-10-23T02:43:14.913Z,1008.15
2017-10-23T02:43:41.030Z,1008.11
2017-10-23T02:44:07.172Z,1008.1
2017-10-23T02:44:33.305Z,1008.11
2017-10-23T02:44:59.458Z,1008.13
2017-10-23T02:45:25.582Z,1008.11
2017-10-23T02:45:51.702Z,1008.12
2017-10-23T02:46:17.818Z,1008.11
2017-10-23T02:46:43.942Z,1008.11
2017-10-23T02:47:10.068Z,1008.15
2017-10-23T02:47:36.187Z,1008.16
2017-10-23T02:48:02.310Z,1008.16
2017-10-23T02:48:28.429Z,1008.16
2017-10-23T02:48:54.557Z,1008.16
2017-10-23T02:49:20.678Z,1008.18
2017-10-23T02:49:46.801Z,1008.22
2017-10-23T02:50:12.947Z,1008.19
2017-10-23T02:50:39.063Z,1008.16
2017-10-23T02:51:05.189Z,1008.24
2017-10-23T02:51:31.323Z,1008.23
2017-10-23T02:51:57.460Z,1008.16
2017-10-23T02:52:23.582Z,1008.19
2017-10-23T02:52:49.705Z,1008.26
2017-10-23T02:53:15.831Z,1008.29
2017-10-23T02:53:41.952Z,1008.24
2017-10-23T02:54:08.074Z,1008.21
2017-10-23T02:54:34.190Z,1008.25
2017-10-23T02:55:00.322Z,1008.27
2017-10-23T02:55:26.463Z,1008.23
2017-10-23T02:55:52.581Z,1008.2
2017-10-23T02:56:18.704Z,1008.25
2017-10-23T02:56:44.848Z,1008.24
2017-10-23T02:57:10.962Z,1008.3
2017-10-23T02:57:37.090Z,1008.24
2017-10-23T02:58:03.207Z,1008.28
2017-10-23T02:58:29.336Z,1008.29
2017-10-23T02:58:55.466Z,1008.29
2017-10-23T02:59:21.580Z,1008.3
2017-10-23T02:59:47.716Z,1008.28
2017-10-23T03:00:13.842Z,1008.34
2017-10-23T03:00:39.958Z,1008.3
2017-10-23T03:01:06.081Z,1008.33
2017-10-23T03:01:32.210Z,1008.33
2017-10-23T03:01:58.351Z,1008.33
2017-10-23T03:02:24.473Z,1008.33
2017-10-23T03:02:50.593Z,1008.34
2017-10-23T03:03:16.719Z,1008.32
2017-10-23T03:03:42.835Z,1008.36
2017-10-23T03:04:08.961Z,1008.34
2017-10-23T03:04:35.077Z,1008.38
2017-10-23T03:05:01.202Z,1008.39
2017-10-23T03:05:27.341Z,1008.35
2017-10-23T03:05:53.464Z,1008.37
2017-10-23T03:06:19.608Z,1008.34
2017-10-23T03:06:45.737Z,1008.33
2017-10-23T03:07:11.870Z,1008.36
2017-10-23T03:07:38.002Z,1008.36
2017-10-23T03:08:04.126Z,1008.37
2017-10-23T03:08:30.242Z,1008.39
2017-10-23T03:08:56.361Z,1008.38
2017-10-23T03:09:22.486Z,1008.42
2017-10-23T03:09:48.610Z,1008.42
2017-10-23T03:10:14.729Z,1008.43
2017-10-23T03:10:40.851Z,1008.43
2017-10-23T03:11:06.969Z,1008.42
2017-10-23T03:11:33.095Z,1008.4
2017-10-23T03:11:59.209Z,1008.45
2017-10-23T03:12:25.334Z,1008.52
2017-10-23T03:12:51.458Z,1008.39
2017-10-23T03:13:17.572Z,1008.49
2017-10-23T03:13:43.695Z,1008.45
2017-10-23T03:14:09.841Z,1008.48
2017-10-23T03:14:35.958Z,1008.44
2017-10-23T03:15:02.077Z,1008.47
2017-10-23T03:15:28.202Z,1008.48
2017-10-23T03:15:54.341Z,1008.5
2017-10-23T03:16:20.465Z,1008.49
2017-10-23T03:16:46.583Z,1008.52
2017-10-23T03:17:12.710Z,1008.5
2017-10-23T03:17:38.833Z,1008.49
2017-10-23T03:18:04.959Z,1008.49
2017-10-23T03:18:31.076Z,1008.54
2017-10-23T03:18:57.202Z,1008.54
2017-10-23T03:19:23.323Z,1008.54
2017-10-23T03:19:49.452Z,1008.51
2017-10-23T03:20:15.568Z,1008.54
2017-10-23T03:20:41.692Z,1008.53
2017-10-23T03:21:07.808Z,1008.48
2017-10-23T03:21:33.936Z,1008.51
2017-10-23T03:22:00.055Z,1008.53
2017-10-23T03:22:26.176Z,1008.53
2017-10-23T03:22:52.300Z,1008.48
2017-10-23T03:23:18.420Z,1008.57
2017-10-23T03:23:44.543Z,1008.51
2017-10-23T03:24:10.660Z,1008.52
2017-10-23T03:24:36.788Z,1008.55
2017-10-23T03:25:02.913Z,1008.5
2017-10-23T03:25:29.029Z,1008.52
2017-10-23T03:25:55.155Z,1008.48
2017-10-23T03:26:21.272Z,1008.44
2017-10-23T03:26:47.398Z,1008.5
2017-10-23T03:27:13.517Z,1008.48
2017-10-23T03:27:39.635Z,1008.46
2017-10-23T03:28:05.785Z,1008.44
2017-10-23T03:28:31.910Z,1008.5
2017-10-23T03:28:58.031Z,1008.5
2017-10-23T03:29:24.147Z,1008.51
2017-10-23T03:29:50.265Z,1008.46
2017-10-23T03:30:16.388Z,1008.54
2017-10-23T03:30:42.533Z,1008.5
2017-10-23T03:31:08.654Z,1008.47
2017-10-23T03:31:34.772Z,1008.47
2017-10-23T03:32:00.904Z,1008.5
2017-10-23T03:32:27.042Z,1008.45
2017-10-23T03:32:53.164Z,1008.49
2017-10-23T03:33:19.286Z,1008.51
2017-10-23T03:33:45.404Z,1008.49
2017-10-23T03:34:11.527Z,1008.48
2017-10-23T03:34:37.653Z,1008.49
2017-10-23T03:35:03.769Z,1008.5
2017-10-23T03:35:29.889Z,1008.51
2017-10-23T03:35:56.035Z,1008.46
2017-10-23T03:36:22.158Z,1008.51
2017-10-23T03:36:48.269Z,1008.51
2017-10-23T03:37:14.390Z,1008.5
2017-10-23T03:37:40.513Z,1008.47
2017-10-23T03:38:06.637Z,1008.49
2017-10-23T03:38:32.775Z,1008.52
2017-10-23T03:38:58.883Z,1008.49
2017-10-23T03:39:25.008Z,1008.46
2017-10-23T03:39:51.122Z,1008.49
2017-10-23T03:40:17.271Z,1008.5
2017-10-23T03:40:43.392Z,1008.46
2017-10-23T03:41:09.518Z,1008.55
2017-10-23T03:41:35.635Z,1008.51
2017-10-23T03:42:01.779Z,1008.51
2017-10-23T03:42:27.913Z,1008.52
2017-10-23T03:42:54.026Z,1008.56
2017-10-23T03:43:20.146Z,1008.54
2017-10-23T03:43:46.272Z,1008.53
2017-10-23T03:44:12.394Z,1008.53
2017-10-23T03:44:38.509Z,1008.58
2017-10-23T03:45:04.637Z,1008.54
2017-10-23T03:45:30.780Z,1008.58
2017-10-23T03:45:56.921Z,1008.54
2017-10-23T03:46:23.046Z,1008.57
2017-10-23T03:46:49.157Z,1008.6
2017-10-23T03:47:15.284Z,1008.57
2017-10-23T03:47:41.412Z,1008.58
2017-10-23T03:48:07.527Z,1008.58
2017-10-23T03:48:33.653Z,1008.6
2017-10-23T03:48:59.770Z,1008.61
2017-10-23T03:49:25.896Z,1008.56
2017-10-23T03:49:52.015Z,1008.55
2017-10-23T03:50:18.140Z,1008.59
2017-10-23T03:50:44.265Z,1008.62
2017-10-23T03:51:10.387Z,1008.59
2017-10-23T03:51:36.506Z,1008.61
2017-10-23T03:52:02.621Z,1008.62
2017-10-23T03:52:28.748Z,1008.59
2017-10-23T03:52:54.870Z,1008.59
2017-10-23T03:53:21.002Z,1008.62
2017-10-23T03:53:47.122Z,1008.62
2017-10-23T03:54:13.234Z,1008.57
2017-10-23T03:54:39.359Z,1008.6
2017-10-23T03:55:05.481Z,1008.58
2017-10-23T03:55:31.605Z,1008.53
2017-10-23T03:55:57.721Z,1008.56
2017-10-23T03:56:23.849Z,1008.6
2017-10-23T03:56:49.965Z,1008.57
2017-10-23T03:57:16.081Z,1008.59
2017-10-23T03:57:42.204Z,1008.59
2017-10-23T03:58:08.323Z,1008.57
2017-10-23T03:58:34.463Z,1008.62
2017-10-23T03:59:00.576Z,1008.56
2017-10-23T03:59:26.692Z,1008.58
2017-10-23T03:59:52.811Z,1008.61
2017-10-23T04:00:18.935Z,1008.54
2017-10-23T04:00:45.063Z,1008.58
2017-10-23T04:01:11.205Z,1008.53
2017-10-23T04:01:37.326Z,1008.56
2017-10-23T04:02:03.442Z,1008.53
2017-10-23T04:02:29.562Z,1008.56
2017-10-23T04:02:55.718Z,1008.56
2017-10-23T04:03:21.841Z,1008.56
2017-10-23T04:03:47.958Z,1008.64
2017-10-23T04:04:14.087Z,1008.56
2017-10-23T04:04:40.205Z,1008.59
2017-10-23T04:05:06.332Z,1008.61
2017-10-23T04:05:32.451Z,1008.65
2017-10-23T04:05:58.568Z,1008.64
2017-10-23T04:06:24.695Z,1008.6
2017-10-23T04:06:50.818Z,1008.6
2017-10-23T04:07:16.935Z,1008.64
2017-10-23T04:07:43.055Z,1008.65
2017-10-23T04:08:09.201Z,1008.68
2017-10-23T04:08:35.324Z,1008.63
2017-10-23T04:09:01.446Z,1008.63
2017-10-23T04:09:27.582Z,1008.61
2017-10-23T04:09:53.730Z,1008.64
2017-10-23T04:10:19.846Z,1008.62
2017-10-23T04:10:45.971Z,1008.6
2017-10-23T04:11:12.098Z,1008.62
2017-10-23T04:11:38.215Z,1008.63
2017-10-23T04:12:04.332Z,1008.65
2017-10-23T04:12:30.457Z,1008.61
2017-10-23T04:12:56.575Z,1008.66
2017-10-23T04:13:22.705Z,1008.65
2017-10-23T04:13:48.830Z,1008.62
2017-10-23T04:14:14.961Z,1008.6
2017-10-23T04:14:41.087Z,1008.59
2017-10-23T04:15:07.207Z,1008.63
2017-10-23T04:15:33.321Z,1008.58
2017-10-23T04:15:59.444Z,1008.63
2017-10-23T04:16:25.567Z,1008.62
2017-10-23T04:16:51.697Z,1008.62
2017-10-23T04:17:17.816Z,1008.65
2017-10-23T04:17:43.941Z,1008.61
2017-10-23T04:18:10.060Z,1008.66
2017-10-23T04:18:36.178Z,1008.67
2017-10-23T04:19:02.297Z,1008.67
2017-10-23T04:19:28.417Z,1008.71
2017-10-23T04:19:54.567Z,1008.69
2017-10-23T04:20:20.684Z,1008.66
2017-10-23T04:20:46.809Z,1008.66
2017-10-23T04:21:12.929Z,1008.7
2017-10-23T04:21:39.052Z,1008.64
2017-10-23T04:22:05.166Z,1008.63
2017-10-23T04:22:31.289Z,1008.62
2017-10-23T04:22:57.411Z,1008.66
2017-10-23T04:23:23.526Z,1008.7
2017-10-23T04:23:49.682Z,1008.69
2017-10-23T04:24:15.801Z,1008.68
2017-10-23T04:24:41.926Z,1008.71
2017-10-23T04:25:08.046Z,1008.71
2017-10-23T04:25:34.186Z,1008.71
2017-10-23T04:26:00.317Z,1008.66
2017-10-23T04:26:26.440Z,1008.72
2017-10-23T04:26:52.556Z,1008.66
2017-10-23T04:27:18.681Z,1008.75
2017-10-23T04:27:44.803Z,1008.72
2017-10-23T04:28:10.920Z,1008.69
2017-10-23T04:28:37.050Z,1008.73
2017-10-23T04:29:03.169Z,1008.72
2017-10-23T04:29:29.292Z,1008.73
2017-10-23T04:29:55.438Z,1008.7
2017-10-23T04:30:21.578Z,1008.69
2017-10-23T04:30:47.691Z,1008.74
2017-10-23T04:31:13.818Z,1008.76
2017-10-23T04:31:39.932Z,1008.73
2017-10-23T04:32:06.052Z,1008.7
2017-10-23T04:32:32.181Z,1008.73
2017-10-23T04:32:58.308Z,1008.74
2017-10-23T04:33:24.431Z,1008.71
2017-10-23T04:33:50.552Z,1008.73
2017-10-23T04:34:16.669Z,1008.75
2017-10-23T04:34:42.811Z,1008.7
2017-10-23T04:35:08.947Z,1008.72
2017-10-23T04:35:35.055Z,1008.78
2017-10-23T04:36:01.178Z,1008.74
2017-10-23T04:36:27.315Z,1008.79
2017-10-23T04:36:53.437Z,1008.8
2017-10-23T04:37:19.563Z,1008.76
2017-10-23T04:37:45.682Z,1008.77
2017-10-23T04:38:11.803Z,1008.74
2017-10-23T04:38:37.935Z,1008.76
2017-10-23T04:39:04.044Z,1008.76
2017-10-23T04:39:30.172Z,1008.79
2017-10-23T04:39:56.294Z,1008.75
2017-10-23T04:40:22.412Z,1008.78
2017-10-23T04:40:48.542Z,1008.77
2017-10-23T04:41:14.655Z,1008.78
2017-10-23T04:41:40.774Z,1008.76
2017-10-23T04:42:06.923Z,1008.75
2017-10-23T04:42:33.038Z,1008.79
2017-10-23T04:42:59.163Z,1008.76
2017-10-23T04:43:25.289Z,1008.82
2017-10-23T04:43:51.406Z,1008.75
2017-10-23T04:44:17.530Z,1008.8
2017-10-23T04:44:43.658Z,1008.77
2017-10-23T04:45:09.794Z,1008.74
2017-10-23T04:45:35.923Z,1008.77
2017-10-23T04:46:02.039Z,1008.8
2017-10-23T04:46:28.165Z,1008.81
2017-10-23T04:46:54.289Z,1008.83
2017-10-23T04:47:20.409Z,1008.78
2017-10-23T04:47:46.527Z,1008.8
2017-10-23T04:48:12.650Z,1008.8
2017-10-23T04:48:38.770Z,1008.77
2017-10-23T04:49:04.911Z,1008.78
2017-10-23T04:49:31.061Z,1008.82
2017-10-23T04:49:57.157Z,1008.8
2017-10-23T04:50:23.276Z,1008.81
2017-10-23T04:50:49.399Z,1008.85
2017-10-23T04:51:15.520Z,1008.77
2017-10-23T04:51:41.645Z,1008.81
2017-10-23T04:52:07.772Z,1008.8
2017-10-23T04:52:33.897Z,1008.79
2017-10-23T04:53:00.018Z,1008.82
2017-10-23T04:53:26.140Z,1008.79
2017-10-23T04:53:52.256Z,1008.8
2017-10-23T04:54:18.377Z,1008.83
2017-10-23T04:54:44.497Z,1008.84
2017-10-23T04:55:10.620Z,1008.82
2017-10-23T04:55:36.740Z,1008.82
2017-10-23T04:56:02.866Z,1008.87
2017-10-23T04:56:28.993Z,1008.94
2017-10-23T04:56:55.115Z,1008.82
2017-10-23T04:57:21.233Z,1008.86
2017-10-23T04:57:47.356Z,1008.82
2017-10-23T04:58:13.495Z,1008.83
2017-10-23T04:58:39.614Z,1008.8
2017-10-23T04:59:05.734Z,1008.81
2017-10-23T04:59:31.866Z,1008.82
2017-10-23T04:59:57.978Z,1008.82
2017-10-23T05:00:24.105Z,1008.79
2017-10-23T05:00:50.256Z,1008.81
2017-10-23T05:01:16.362Z,1008.89
2017-10-23T05:01:42.481Z,1008.8
2017-10-23T05:02:08.606Z,1008.8
2017-10-23T05:02:34.728Z,1008.88
2017-10-23T05:03:00.865Z,1008.87
2017-10-23T05:03:26.989Z,1008.84
2017-10-23T05:03:53.110Z,1008.8
2017-10-23T05:04:19.225Z,1008.8
2017-10-23T05:04:45.370Z,1008.82
2017-10-23T05:05:11.510Z,1008.86
2017-10-23T05:05:37.616Z,1008.84
2017-10-23T05:06:03.732Z,1008.85
2017-10-23T05:06:29.861Z,1008.84
2017-10-23T05:06:55.984Z,1008.85
2017-10-23T05:07:22.100Z,1008.86
2017-10-23T05:07:48.231Z,1008.82
2017-10-23T05:08:14.343Z,1008.88
2017-10-23T05:08:40.463Z,1008.89
2017-10-23T05:09:06.609Z,1008.85
2017-10-23T05:09:32.726Z,1008.87
2017-10-23T05:09:58.852Z,1008.85
2017-10-23T05:10:24.971Z,1008.89
2017-10-23T05:10:51.095Z,1008.9
2017-10-23T05:11:17.222Z,1008.83
2017-10-23T05:11:43.341Z,1008.9
2017-10-23T05:12:09.462Z,1008.84
2017-10-23T05:12:35.588Z,1008.88
2017-10-23T05:13:01.710Z,1008.88
2017-10-23T05:13:27.826Z,1008.84
2017-10-23T05:13:53.949Z,1008.84
2017-10-23T05:14:20.068Z,1008.86
2017-10-23T05:14:46.191Z,1008.84
2017-10-23T05:15:12.342Z,1008.87
2017-10-23T05:15:38.456Z,1008.87
2017-10-23T05:16:04.584Z,1008.91
2017-10-23T05:16:30.706Z,1008.9
2017-10-23T05:16:56.827Z,1008.88
2017-10-23T05:17:22.953Z,1008.89
2017-10-23T05:17:49.072Z,1008.87